createdAt,value
2023-04-27T00:02:15.125Z,5.37
2023-04-27T00:04:44.675Z,5.23
2023-04-27T00:07:13.118Z,5.60
2023-04-27T00:09:42.611Z,6.37
2023-04-27T00:12:10.811Z,5.80
2023-04-27T00:14:38.960Z,5.53
2023-04-27T00:17:07.124Z,6.30
2023-04-27T00:19:35.340Z,5.67
2023-04-27T00:22:03.501Z,5.80
2023-04-27T00:24:31.650Z,6.53
2023-04-27T00:27:01.603Z,5.50
2023-04-27T00:29:29.758Z,5.53
2023-04-27T00:31:58.006Z,5.80
2023-04-27T00:34:26.657Z,5.67
2023-04-27T00:36:54.827Z,5.07
2023-04-27T00:39:22.986Z,4.90
2023-04-27T00:41:51.164Z,5.73
2023-04-27T00:44:25.770Z,5.13
2023-04-27T00:46:53.959Z,5.53
2023-04-27T00:49:22.511Z,6.07
2023-04-27T00:51:50.700Z,5.83
2023-04-27T00:54:20.924Z,5.60
2023-04-27T00:56:50.844Z,5.50
2023-04-27T00:59:19.281Z,5.23
2023-04-27T01:01:49.440Z,5.30
2023-04-27T01:04:18.822Z,5.67
2023-04-27T01:06:47.346Z,6.07
2023-04-27T01:09:16.461Z,5.23
2023-04-27T01:11:44.666Z,5.03
2023-04-27T01:14:12.915Z,5.20
2023-04-27T01:16:41.560Z,5.50
2023-04-27T01:19:11.363Z,7.13
2023-04-27T01:21:39.657Z,5.80
2023-04-27T01:24:09.974Z,5.30
2023-04-27T01:26:38.165Z,5.23
2023-04-27T01:29:06.338Z,4.87
2023-04-27T01:31:34.658Z,5.37
2023-04-27T01:34:02.879Z,5.13
2023-04-27T01:36:31.765Z,5.73
2023-04-27T01:38:59.948Z,5.23
2023-04-27T01:41:29.474Z,5.27
2023-04-27T01:43:57.646Z,5.50
2023-04-27T01:46:26.424Z,5.43
2023-04-27T01:48:54.633Z,4.90
2023-04-27T01:51:22.839Z,5.10
2023-04-27T01:53:51.032Z,5.50
2023-04-27T01:56:19.192Z,5.93
2023-04-27T01:58:48.725Z,5.90
2023-04-27T02:01:16.992Z,6.07
2023-04-27T02:03:45.387Z,6.37
2023-04-27T02:06:13.703Z,5.60
2023-04-27T02:08:41.862Z,5.60
2023-04-27T02:11:10.528Z,6.00
2023-04-27T02:13:38.710Z,5.77
2023-04-27T02:16:08.707Z,6.00
2023-04-27T02:18:36.918Z,5.57
2023-04-27T02:21:10.606Z,4.97
2023-04-27T02:23:38.811Z,5.70
2023-04-27T02:26:07.082Z,5.80
2023-04-27T02:28:35.302Z,5.70
2023-04-27T02:31:03.891Z,5.47
2023-04-27T02:33:33.585Z,6.80
2023-04-27T02:36:01.749Z,5.53
2023-04-27T02:38:31.249Z,5.97
2023-04-27T02:40:59.407Z,6.60
2023-04-27T02:43:27.595Z,6.50
2023-04-27T02:45:55.898Z,6.03
2023-04-27T02:48:24.083Z,5.60
2023-04-27T02:50:53.613Z,5.87
2023-04-27T02:53:21.749Z,6.17
2023-04-27T02:55:50.122Z,6.93
2023-04-27T02:58:18.675Z,6.77
2023-04-27T03:00:48.731Z,6.70
2023-04-27T03:03:17.298Z,6.30
2023-04-27T03:05:46.377Z,6.33
2023-04-27T03:08:15.914Z,7.07
2023-04-27T03:10:44.103Z,6.77
2023-04-27T03:13:12.310Z,6.33
2023-04-27T03:15:40.522Z,7.57
2023-04-27T03:18:08.767Z,6.37
2023-04-27T03:20:36.961Z,6.73
2023-04-27T03:23:05.145Z,6.83
2023-04-27T03:25:34.704Z,6.97
2023-04-27T03:28:02.950Z,7.10
2023-04-27T03:30:31.153Z,7.33
2023-04-27T03:32:59.640Z,7.93
2023-04-27T03:35:27.874Z,7.43
2023-04-27T03:37:56.063Z,7.10
2023-04-27T03:40:24.309Z,7.57
2023-04-27T03:42:53.816Z,7.50
2023-04-27T03:45:22.409Z,7.57
2023-04-27T03:47:50.655Z,8.53
2023-04-27T03:50:18.893Z,7.70
2023-04-27T03:52:47.025Z,7.93
2023-04-27T03:55:15.175Z,8.17
2023-04-27T03:57:43.367Z,7.50
2023-04-27T04:00:14.669Z,7.97
2023-04-27T04:02:43.234Z,7.40
2023-04-27T04:05:12.119Z,7.47
2023-04-27T04:07:41.437Z,7.67
2023-04-27T04:10:10.075Z,8.00
2023-04-27T04:12:38.474Z,8.33
2023-04-27T04:15:07.736Z,8.00
2023-04-27T04:17:37.288Z,8.43
2023-04-27T04:20:08.780Z,7.87
2023-04-27T04:22:36.914Z,8.43
2023-04-27T04:25:05.199Z,8.33
2023-04-27T04:27:33.539Z,9.47
2023-04-27T04:30:01.764Z,9.00
2023-04-27T04:32:30.489Z,9.07
2023-04-27T04:35:01.430Z,8.47
2023-04-27T04:37:29.666Z,8.90
2023-04-27T04:39:57.823Z,9.20
2023-04-27T04:42:26.249Z,9.43
2023-04-27T04:44:54.385Z,9.10
2023-04-27T04:47:23.126Z,8.60
2023-04-27T04:49:51.356Z,9.20
2023-04-27T04:52:21.242Z,10.33
2023-04-27T04:54:49.411Z,8.90
2023-04-27T04:57:17.564Z,9.40
2023-04-27T04:59:45.714Z,9.20
2023-04-27T05:02:13.932Z,9.90
2023-04-27T05:04:42.216Z,9.67
2023-04-27T05:07:12.673Z,8.97
2023-04-27T05:09:44.253Z,9.17
2023-04-27T05:12:12.393Z,10.00
2023-04-27T05:14:40.561Z,8.90
2023-04-27T05:17:08.746Z,7.83
2023-04-27T05:19:36.929Z,8.53
2023-04-27T05:22:05.093Z,8.43
2023-04-27T05:24:33.339Z,7.93
2023-04-27T05:27:03.508Z,8.20
2023-04-27T05:29:31.703Z,8.03
2023-04-27T05:31:59.927Z,8.13
2023-04-27T05:34:28.126Z,7.60
2023-04-27T05:36:56.295Z,8.87
2023-04-27T05:39:24.463Z,9.20
2023-04-27T05:41:53.932Z,9.60
2023-04-27T05:44:25.342Z,8.40
2023-04-27T05:46:53.529Z,8.40
2023-04-27T05:49:21.677Z,8.60
2023-04-27T05:51:49.901Z,7.90
2023-04-27T05:54:18.181Z,8.27
2023-04-27T05:56:46.376Z,8.23
2023-04-27T05:59:14.712Z,7.87
2023-04-27T06:01:44.484Z,8.13
2023-04-27T06:04:12.818Z,6.93
2023-04-27T06:06:41.181Z,7.93
2023-04-27T06:09:09.353Z,7.37
2023-04-27T06:11:37.542Z,8.30
2023-04-27T06:14:05.742Z,7.60
2023-04-27T06:16:33.928Z,7.60
2023-04-27T06:19:03.568Z,7.40
2023-04-27T06:21:33.945Z,7.60
2023-04-27T06:24:02.181Z,7.60
2023-04-27T06:26:30.315Z,7.40
2023-04-27T06:28:58.493Z,8.17
2023-04-27T06:31:27.669Z,7.57
2023-04-27T06:33:55.871Z,7.00
2023-04-27T06:36:27.778Z,7.13
2023-04-27T06:38:56.568Z,7.30
2023-04-27T06:41:24.913Z,7.03
2023-04-27T06:43:53.327Z,7.30
2023-04-27T06:46:21.835Z,7.33
2023-04-27T06:48:50.025Z,7.63
2023-04-27T06:51:18.199Z,7.40
2023-04-27T06:53:47.730Z,7.00
2023-04-27T06:56:16.303Z,8.33
2023-04-27T06:58:44.457Z,7.60
2023-04-27T07:01:12.699Z,6.97
2023-04-27T07:03:41.139Z,7.00
2023-04-27T07:06:09.676Z,7.37
2023-04-27T07:08:37.847Z,7.50
2023-04-27T07:11:07.385Z,7.87
2023-04-27T07:13:35.589Z,7.57
2023-04-27T07:16:03.783Z,7.40
2023-04-27T07:18:32.022Z,7.17
2023-04-27T07:21:00.199Z,8.33
2023-04-27T07:23:28.363Z,7.87
2023-04-27T07:25:57.487Z,8.43
2023-04-27T07:28:27.222Z,7.37
2023-04-27T07:30:55.589Z,6.70
2023-04-27T07:33:23.799Z,7.40
2023-04-27T07:35:53.797Z,7.30
2023-04-27T07:38:22.211Z,7.83
2023-04-27T07:40:51.148Z,8.20
2023-04-27T07:43:20.199Z,8.30
2023-04-27T07:45:50.307Z,8.53
2023-04-27T07:48:18.537Z,8.20
2023-04-27T07:50:46.915Z,8.03
2023-04-27T07:53:15.091Z,8.33
2023-04-27T07:55:44.385Z,9.00
2023-04-27T07:58:12.650Z,8.67
2023-04-27T08:00:40.898Z,10.20
2023-04-27T08:03:10.714Z,9.00
2023-04-27T08:05:39.380Z,9.03
2023-04-27T08:08:07.853Z,10.30
2023-04-27T08:10:38.037Z,9.20
2023-04-27T08:13:09.672Z,10.03
2023-04-27T08:15:37.918Z,9.63
2023-04-27T08:18:06.473Z,9.33
2023-04-27T08:20:36.121Z,10.00
2023-04-27T08:23:04.295Z,9.73
2023-04-27T08:25:32.452Z,9.30
2023-04-27T08:28:00.614Z,9.30
2023-04-27T08:30:28.812Z,9.10
2023-04-27T08:32:57.013Z,8.77
2023-04-27T08:35:25.287Z,8.93
2023-04-27T08:37:55.166Z,9.10
2023-04-27T08:40:24.856Z,8.30
2023-04-27T08:42:57.616Z,9.23
2023-04-27T08:45:26.264Z,8.70
2023-04-27T08:47:54.802Z,8.90
2023-04-27T08:50:24.366Z,8.73
2023-04-27T08:52:53.199Z,8.13
2023-04-27T08:55:22.975Z,7.73
2023-04-27T08:57:57.727Z,9.23
2023-04-27T09:00:26.650Z,8.57
2023-04-27T09:02:55.288Z,8.77
2023-04-27T09:05:24.542Z,8.57
2023-04-27T09:07:59.803Z,8.13
2023-04-27T09:10:29.969Z,9.17
2023-04-27T09:12:59.061Z,9.13
2023-04-27T09:15:27.409Z,9.33
2023-04-27T09:17:59.115Z,8.83
2023-04-27T09:20:28.530Z,9.00
2023-04-27T09:22:58.223Z,9.53
2023-04-27T09:25:29.339Z,9.60
2023-04-27T09:27:58.074Z,9.40
2023-04-27T09:30:26.628Z,8.70
2023-04-27T09:32:56.032Z,8.80
2023-04-27T09:35:24.872Z,9.33
2023-04-27T09:37:53.890Z,9.10
2023-04-27T09:40:26.390Z,9.27
2023-04-27T09:42:56.055Z,9.27
2023-04-27T09:45:24.979Z,9.97
2023-04-27T09:47:53.536Z,9.60
2023-04-27T09:50:22.717Z,9.07
2023-04-27T09:52:50.889Z,9.53
2023-04-27T09:55:20.365Z,10.27
2023-04-27T09:57:53.184Z,9.70
2023-04-27T10:00:28.374Z,10.43
2023-04-27T10:03:04.371Z,10.20
2023-04-27T10:05:38.922Z,9.57
2023-04-27T10:08:07.214Z,10.97
2023-04-27T10:10:44.213Z,10.27
2023-04-27T10:13:22.310Z,9.93
2023-04-27T10:15:52.374Z,9.90
2023-04-27T10:18:31.623Z,10.67
2023-04-27T10:21:11.190Z,9.50
2023-04-27T10:23:48.250Z,9.80
2023-04-27T10:26:23.856Z,10.03
2023-04-27T10:28:59.291Z,10.17
2023-04-27T10:31:31.673Z,10.13
2023-04-27T10:34:09.879Z,11.10
2023-04-27T10:36:38.455Z,9.57
2023-04-27T10:39:16.829Z,10.70
2023-04-27T10:41:52.107Z,10.10
2023-04-27T10:44:21.083Z,9.70
2023-04-27T10:46:54.230Z,11.37
2023-04-27T10:49:22.421Z,10.70
2023-04-27T10:51:51.680Z,11.00
2023-04-27T10:54:20.011Z,10.90
2023-04-27T10:56:48.276Z,10.70
2023-04-27T10:59:16.449Z,10.50
2023-04-27T11:01:44.722Z,9.67
2023-04-27T11:04:14.449Z,11.63
2023-04-27T11:06:46.835Z,10.47
2023-04-27T11:09:16.111Z,10.17
2023-04-27T11:11:48.127Z,10.23
2023-04-27T11:14:21.669Z,10.83
2023-04-27T11:16:50.609Z,10.60
2023-04-27T11:19:20.167Z,11.30
2023-04-27T11:21:48.319Z,10.80
2023-04-27T11:24:17.231Z,10.50
2023-04-27T11:26:53.090Z,10.63
2023-04-27T11:29:21.312Z,11.13
2023-04-27T11:31:51.164Z,9.60
2023-04-27T11:34:22.587Z,9.60
2023-04-27T11:39:41.670Z,10.33
2023-04-27T11:42:19.628Z,9.47
2023-04-27T11:44:54.415Z,10.00
2023-04-27T11:47:22.930Z,9.83
2023-04-27T11:49:53.889Z,10.07
2023-04-27T11:52:22.133Z,8.13
2023-04-27T11:54:50.945Z,10.00
2023-04-27T11:57:19.243Z,11.13
2023-04-27T11:59:47.453Z,11.10
2023-04-27T12:02:16.990Z,10.57
2023-04-27T12:04:45.485Z,10.87
2023-04-27T12:07:15.090Z,12.30
2023-04-27T12:09:43.364Z,11.13
2023-04-27T12:12:12.803Z,12.20
2023-04-27T12:14:41.362Z,11.50
2023-04-27T12:17:09.671Z,10.60
2023-04-27T12:19:37.976Z,10.47
2023-04-27T12:22:06.761Z,12.03
2023-04-27T12:24:37.093Z,12.07
2023-04-27T12:27:05.283Z,12.20
2023-04-27T12:29:33.449Z,11.67
2023-04-27T12:32:01.739Z,12.77
2023-04-27T12:34:29.946Z,12.20
2023-04-27T12:36:58.120Z,12.40
2023-04-27T12:39:26.785Z,12.47
2023-04-27T12:41:56.897Z,13.33
2023-04-27T12:44:25.124Z,12.20
2023-04-27T12:46:53.434Z,13.13
2023-04-27T12:49:21.780Z,13.10
2023-04-27T12:51:51.683Z,13.83
2023-04-27T12:54:19.996Z,12.23
2023-04-27T12:56:48.149Z,13.50
2023-04-27T12:59:18.081Z,12.50
2023-04-27T13:01:46.622Z,13.13
2023-04-27T13:04:21.312Z,12.67
2023-04-27T13:06:50.050Z,12.37
2023-04-27T13:09:18.256Z,11.37
2023-04-27T13:11:46.397Z,12.57
2023-04-27T13:14:15.006Z,12.33
2023-04-27T13:16:44.756Z,13.20
2023-04-27T13:19:12.938Z,12.23
2023-04-27T13:21:41.189Z,11.80
2023-04-27T13:24:09.522Z,12.30
2023-04-27T13:26:37.692Z,13.00
2023-04-27T13:29:05.841Z,12.60
2023-04-27T13:31:34.236Z,11.77
2023-04-27T13:34:04.712Z,11.70
2023-04-27T13:36:32.887Z,12.00
2023-04-27T13:39:01.629Z,11.90
2023-04-27T13:41:29.917Z,11.57
2023-04-27T13:43:58.096Z,12.17
2023-04-27T13:46:26.807Z,12.63
2023-04-27T13:48:55.018Z,12.20
2023-04-27T13:51:25.022Z,12.40
2023-04-27T13:53:53.201Z,11.67
2023-04-27T13:56:21.573Z,12.37
2023-04-27T13:58:49.760Z,12.17
2023-04-27T14:01:18.026Z,12.30
2023-04-27T14:03:46.394Z,11.40
2023-04-27T14:06:14.696Z,12.13
2023-04-27T14:08:44.243Z,12.03
2023-04-27T14:11:13.482Z,11.63
2023-04-27T14:13:41.646Z,12.20
2023-04-27T14:16:10.068Z,13.13
2023-04-27T14:18:38.255Z,11.40
2023-04-27T14:21:06.484Z,12.30
2023-04-27T14:23:34.890Z,11.63
2023-04-27T14:26:05.063Z,12.97
2023-04-27T14:28:33.256Z,12.17
2023-04-27T14:31:01.431Z,12.93
2023-04-27T14:33:29.628Z,12.10
2023-04-27T14:35:57.799Z,12.23
2023-04-27T14:38:26.111Z,12.80
2023-04-27T14:40:54.263Z,12.07
2023-04-27T14:43:23.814Z,12.30
2023-04-27T14:45:57.117Z,12.40
2023-04-27T14:48:30.407Z,12.33
2023-04-27T14:50:58.609Z,12.00
2023-04-27T14:53:26.759Z,12.33
2023-04-27T14:55:54.925Z,12.30
2023-04-27T14:58:24.430Z,11.50
2023-04-27T15:00:53.084Z,11.43
2023-04-27T15:03:21.495Z,12.73
2023-04-27T15:05:49.783Z,12.47
2023-04-27T15:08:17.963Z,12.43
2023-04-27T15:10:46.111Z,12.43
2023-04-27T15:13:14.285Z,11.90
2023-04-27T15:15:45.443Z,10.77
2023-04-27T15:18:13.829Z,13.37
2023-04-27T15:20:43.563Z,13.20
2023-04-27T15:23:12.599Z,11.90
2023-04-27T15:25:40.831Z,12.17
2023-04-27T15:28:09.311Z,11.27
2023-04-27T15:30:37.649Z,12.10
2023-04-27T15:33:09.578Z,11.23
2023-04-27T15:35:40.175Z,10.97
2023-04-27T15:38:08.996Z,11.30
2023-04-27T15:40:37.152Z,11.67
2023-04-27T15:43:05.959Z,11.13
2023-04-27T15:45:34.327Z,10.63
2023-04-27T15:48:02.766Z,11.83
2023-04-27T15:50:32.451Z,11.20
2023-04-27T15:53:00.579Z,12.07
2023-04-27T15:55:28.752Z,11.47
2023-04-27T15:57:56.902Z,11.37
2023-04-27T16:00:25.181Z,11.77
2023-04-27T16:02:53.504Z,11.13
2023-04-27T16:05:22.017Z,12.80
2023-04-27T16:07:51.527Z,11.77
2023-04-27T16:10:19.693Z,12.47
2023-04-27T16:12:47.912Z,12.50
2023-04-27T16:15:16.195Z,11.93
2023-04-27T16:17:44.416Z,11.77
2023-04-27T16:20:12.911Z,11.77
2023-04-27T16:22:41.150Z,11.77
2023-04-27T16:25:11.327Z,12.40
2023-04-27T16:27:39.752Z,11.83
2023-04-27T16:30:08.691Z,12.13
2023-04-27T16:32:36.934Z,11.37
2023-04-27T16:35:05.425Z,11.70
2023-04-27T16:37:33.618Z,11.70
2023-04-27T16:40:06.208Z,10.73
2023-04-27T16:42:35.930Z,11.20
2023-04-27T16:45:04.126Z,10.83
2023-04-27T16:47:32.572Z,12.73
2023-04-27T16:50:00.967Z,12.50
2023-04-27T16:52:29.201Z,11.97
2023-04-27T16:54:57.363Z,11.83
2023-04-27T16:57:25.953Z,12.60
2023-04-27T16:59:55.460Z,12.40
2023-04-27T17:02:25.630Z,11.90
2023-04-27T17:04:54.175Z,12.03
2023-04-27T17:07:22.400Z,12.00
2023-04-27T17:09:50.567Z,11.73
2023-04-27T17:12:18.794Z,11.90
2023-04-27T17:14:47.374Z,11.10
2023-04-27T17:17:16.924Z,11.77
2023-04-27T17:19:45.094Z,11.57
2023-04-27T17:22:14.750Z,11.93
2023-04-27T17:24:42.914Z,11.47
2023-04-27T17:27:11.287Z,11.67
2023-04-27T17:29:39.439Z,10.93
2023-04-27T17:32:09.144Z,11.53
2023-04-27T17:34:40.388Z,12.13
2023-04-27T17:37:09.882Z,11.17
2023-04-27T17:39:38.270Z,11.27
2023-04-27T17:42:11.882Z,10.73
2023-04-27T17:44:41.967Z,12.77
2023-04-27T17:47:10.383Z,11.77
2023-04-27T17:49:39.957Z,12.07
2023-04-27T17:52:08.107Z,11.10
2023-04-27T17:54:36.286Z,11.47
2023-04-27T17:57:04.483Z,12.03
2023-04-27T17:59:33.086Z,11.33
2023-04-27T18:02:01.343Z,11.40
2023-04-27T18:04:29.714Z,11.17
2023-04-27T18:06:59.367Z,12.17
2023-04-27T18:09:28.735Z,11.27
2023-04-27T18:11:57.656Z,11.00
2023-04-27T18:14:25.848Z,11.40
2023-04-27T18:16:54.678Z,11.60
2023-04-27T18:19:22.951Z,10.80
2023-04-27T18:21:51.109Z,11.03
2023-04-27T18:24:20.635Z,11.30
2023-04-27T18:26:48.826Z,10.73
2023-04-27T18:29:16.983Z,11.23
2023-04-27T18:31:45.615Z,10.63
2023-04-27T18:34:14.379Z,11.50
2023-04-27T18:36:42.534Z,10.57
2023-04-27T18:39:10.797Z,11.73
2023-04-27T18:41:40.544Z,10.93
2023-04-27T18:44:08.706Z,11.07
2023-04-27T18:46:36.868Z,11.13
2023-04-27T18:49:05.015Z,10.53
2023-04-27T18:51:32.899Z,10.47
2023-04-27T18:54:00.860Z,10.57
2023-04-27T18:56:28.724Z,11.53
2023-04-27T18:58:57.936Z,11.43
2023-04-27T19:01:27.796Z,11.17
2023-04-27T19:03:56.622Z,11.43
2023-04-27T19:06:24.757Z,11.47
2023-04-27T19:08:52.553Z,12.03
2023-04-27T19:11:22.252Z,11.27
2023-04-27T19:13:52.207Z,10.77
2023-04-27T19:16:21.774Z,10.97
2023-04-27T19:18:49.699Z,11.27
2023-04-27T19:21:17.586Z,11.30
2023-04-27T19:23:45.846Z,11.10
2023-04-27T19:26:14.342Z,10.40
2023-04-27T19:28:42.400Z,10.60
2023-04-27T19:31:10.543Z,11.23
2023-04-27T19:33:46.718Z,10.30
2023-04-27T19:36:15.109Z,10.63
2023-04-27T19:38:42.933Z,10.87
2023-04-27T19:41:13.828Z,9.37
2023-04-27T19:43:41.809Z,9.80
2023-04-27T19:46:09.689Z,9.57
2023-04-27T19:48:38.944Z,10.03
2023-04-27T19:51:10.300Z,9.43
2023-04-27T19:53:38.260Z,9.90
2023-04-27T19:56:06.252Z,9.57
2023-04-27T19:58:35.738Z,8.20
2023-04-27T20:01:03.936Z,9.60
2023-04-27T20:03:32.131Z,9.33
2023-04-27T20:06:01.725Z,9.90
2023-04-27T20:08:30.464Z,10.13
2023-04-27T20:10:58.410Z,9.33
2023-04-27T20:13:26.258Z,9.50
2023-04-27T20:15:54.386Z,9.07
2023-04-27T20:18:22.218Z,10.50
2023-04-27T20:20:51.110Z,10.20
2023-04-27T20:23:20.302Z,9.43
2023-04-27T20:25:48.111Z,9.20
2023-04-27T20:28:15.949Z,8.90
2023-04-27T20:30:43.821Z,9.57
2023-04-27T20:33:12.656Z,9.07
2023-04-27T20:35:41.115Z,8.90
2023-04-27T20:38:08.948Z,8.03
2023-04-27T20:40:38.382Z,8.30
2023-04-27T20:43:06.218Z,8.77
2023-04-27T20:45:34.520Z,9.30
2023-04-27T20:48:03.140Z,8.77
2023-04-27T20:50:31.096Z,8.67
2023-04-27T20:52:59.184Z,8.90
2023-04-27T20:55:27.042Z,9.40
2023-04-27T20:57:56.235Z,9.30
2023-04-27T21:00:24.251Z,8.17
2023-04-27T21:02:52.794Z,8.67
2023-04-27T21:05:20.813Z,7.90
2023-04-27T21:07:48.652Z,8.63
2023-04-27T21:10:16.912Z,8.03
2023-04-27T21:12:44.760Z,7.53
2023-04-27T21:15:13.966Z,8.10
2023-04-27T21:17:41.801Z,8.33
2023-04-27T21:20:11.097Z,7.70
2023-04-27T21:22:39.152Z,7.70
2023-04-27T21:25:07.810Z,7.73
2023-04-27T21:27:36.390Z,8.00
2023-04-27T21:30:04.373Z,8.03
2023-04-27T21:32:33.604Z,8.40
2023-04-27T21:35:01.626Z,7.67
2023-04-27T21:37:29.521Z,7.37
2023-04-27T21:39:57.351Z,7.70
2023-04-27T21:42:25.718Z,7.70
2023-04-27T21:44:54.159Z,7.87
2023-04-27T21:47:22.482Z,8.20
2023-04-27T21:49:52.545Z,7.93
2023-04-27T21:52:21.463Z,7.40
2023-04-27T21:54:49.353Z,7.50
2023-04-27T21:57:19.428Z,7.67
2023-04-27T21:59:47.931Z,6.80
2023-04-27T22:02:16.103Z,7.47
2023-04-27T22:04:45.094Z,7.80
2023-04-27T22:07:14.405Z,7.93
2023-04-27T22:09:42.236Z,8.23
2023-04-27T22:12:10.065Z,8.03
2023-04-27T22:14:37.902Z,7.70
2023-04-27T22:17:05.735Z,8.07
2023-04-27T22:19:33.910Z,8.60
2023-04-27T22:22:01.716Z,7.97
2023-04-27T22:24:31.222Z,8.37
2023-04-27T22:26:59.103Z,8.27
2023-04-27T22:29:27.263Z,8.60
2023-04-27T22:31:55.393Z,8.50
2023-04-27T22:34:23.489Z,8.33
2023-04-27T22:36:51.450Z,8.27
2023-04-27T22:39:19.339Z,7.93
2023-04-27T22:41:48.501Z,7.47
2023-04-27T22:44:17.661Z,8.00
2023-04-27T22:46:46.121Z,8.27
2023-04-27T22:49:14.899Z,8.30
2023-04-27T22:51:43.554Z,8.63
2023-04-27T22:54:11.715Z,8.00
2023-04-27T22:56:40.165Z,8.23
2023-04-27T22:59:09.654Z,8.53
2023-04-27T23:01:38.107Z,9.40
2023-04-27T23:04:07.285Z,9.87
2023-04-27T23:06:35.760Z,9.93
2023-04-27T23:09:04.030Z,10.20
2023-04-27T23:11:32.188Z,9.43
2023-04-27T23:14:00.439Z,9.43
2023-04-27T23:16:30.737Z,9.33
2023-04-27T23:18:58.922Z,9.43
2023-04-27T23:21:28.089Z,9.23
2023-04-27T23:23:56.273Z,8.17
2023-04-27T23:26:24.419Z,8.53
2023-04-27T23:28:52.589Z,8.70
2023-04-27T23:31:20.758Z,9.77
2023-04-27T23:33:50.333Z,11.27
2023-04-27T23:36:18.500Z,10.97
2023-04-27T23:38:46.665Z,10.40
2023-04-27T23:41:14.819Z,10.20
2023-04-27T23:43:43.335Z,10.73
2023-04-27T23:46:11.497Z,10.43
2023-04-27T23:48:39.673Z,10.10
2023-04-27T23:51:09.165Z,9.13
2023-04-27T23:53:37.334Z,8.30
2023-04-27T23:56:05.649Z,7.77
2023-04-27T23:58:33.799Z,7.17
